Terminal Aerodrome Forecast
Issued by NWS Wilmington, OH

Home | Current Version | Previous Version | Text Only | Print | Product List | Glossary On
Versions: 1 2 3 4 5 6 7 8 9 10 11 12 13 14
238
FTUS41 KILN 252325
TAFILN
TAF
KILN 252325Z 2600/2624 13006KT P6SM BKN150
     FM260700 14006KT P6SM VCSH OVC080
     FM261100 16007KT 6SM -SHRA OVC050
     FM261500 17010KT 4SM -SHRA OVC025
     FM261800 19009KT P6SM -SHRA VCTS OVC035CB
     FM262300 20008KT P6SM OVC050=

USA.gov is the U.S. government's official web portal to all federal, state and local government web resources and services.